Valkenswaard, Netherlands
Current Conditions -  °F | °C
As of 9:55 AM on Friday 24 Oct 2014 (Local Time) from EHEH Reporting Station
Drizzle Drizzle  
Wind Chill: 52°   Ceiling: 4400
Heat Index: 52°   Visibility: 6mi
Dew Point: 46°   Wind: 9mph
Humidity: 82%   Direction: 170°S
Pressure: 30.09"   Gusts: NA
Location:  51.35°N, 5.46°E
Report Text: EHEH 240755Z AUTO 17008KT 9999 -DZ OVC044 11/08 Q1019 REDZBLU 18008KT 9999 BKN045
Loading
Personal Weather Stations






























Interactive Weather Map
Tropical Storm Tracking
New forecast layout! Learn more

10-Day Weather Forecast

Advertisements
Track Severe Weather on mobile